AK17 weather

Glacierview Strip
Homer, Alaska, United States

Public forecast

Using degrees Fahrenheit for public forecast. Weather courtesy of forecast.io.

Closest aviation weather report (METAR) to Glacierview Strip

Closest report is Homer Airport, 10.5 nm (19.4 km) SW. Retrieved 2020/01/18 07:53 UTC (16 minutes ago):

PAHO 180753Z AUTO 03005KT 10SM BKN110 M06/M09 A2976 RMK AO2 SLP077 T10561094 TSNO

Closest aviation forecast (TAF) to Glacierview Strip

Closest forecast is Homer Airport, 10.5 nm (19.4 km) SW. Retrieved 2020/01/18 06:42 UTC (1 hour ago):

TAF PAHO 180541Z 1806/1906 04006KT P6SM VCSH SCT050 FM181200 04012G18KT P6SM VCSH SCT050 FM181800 04010KT P6SM SCT050